sensor_id;sensor_type;location;lat;lon;timestamp;pressure;altitude;pressure_sealevel;temperature;humidity
66560;BME280;53413;49.878;8.142;2023-02-17T00:00:25;100706.94;;;6.30;100.00
66560;BME280;53413;49.878;8.142;2023-02-17T00:02:55;100697.41;;;6.26;100.00
66560;BME280;53413;49.878;8.142;2023-02-17T00:05:21;100696.53;;;6.27;100.00
66560;BME280;53413;49.878;8.142;2023-02-17T00:07:46;100691.38;;;6.22;100.00
66560;BME280;53413;49.878;8.142;2023-02-17T00:10:11;100687.91;;;6.22;100.00
66560;BME280;53413;49.878;8.142;2023-02-17T00:12:37;100695.66;;;6.26;100.00
66560;BME280;53413;49.878;8.142;2023-02-17T00:15:02;100693.84;;;6.33;100.00
66560;BME280;53413;49.878;8.142;2023-02-17T00:17:28;100690.31;;;6.43;100.00
66560;BME280;53413;49.878;8.142;2023-02-17T00:19:53;100695.44;;;6.50;100.00
66560;BME280;53413;49.878;8.142;2023-02-17T00:22:20;100692.75;;;6.56;100.00
66560;BME280;53413;49.878;8.142;2023-02-17T00:24:45;100697.91;;;6.62;100.00
66560;BME280;53413;49.878;8.142;2023-02-17T00:27:10;100693.50;;;6.69;100.00
66560;BME280;53413;49.878;8.142;2023-02-17T00:29:36;100696.94;;;6.72;100.00
66560;BME280;53413;49.878;8.142;2023-02-17T00:32:01;100692.56;;;6.77;100.00
66560;BME280;53413;49.878;8.142;2023-02-17T00:34:26;100695.09;;;6.81;100.00
66560;BME280;53413;49.878;8.142;2023-02-17T00:36:52;100695.03;;;6.87;100.00
66560;BME280;53413;49.878;8.142;2023-02-17T00:39:17;100688.88;;;6.92;100.00
66560;BME280;53413;49.878;8.142;2023-02-17T00:41:43;100684.44;;;7.02;100.00
66560;BME280;53413;49.878;8.142;2023-02-17T00:44:15;100681.75;;;7.08;100.00
66560;BME280;53413;49.878;8.142;2023-02-17T00:46:42;100677.28;;;7.17;100.00
66560;BME280;53413;49.878;8.142;2023-02-17T00:49:19;100682.41;;;7.23;100.00
66560;BME280;53413;49.878;8.142;2023-02-17T00:51:45;100680.56;;;7.31;100.00
66560;BME280;53413;49.878;8.142;2023-02-17T00:54:11;100688.22;;;7.44;100.00
66560;BME280;53413;49.878;8.142;2023-02-17T00:56:37;100695.84;;;7.58;100.00
66560;BME280;53413;49.878;8.142;2023-02-17T00:59:03;100700.88;;;7.68;100.00
66560;BME280;53413;49.878;8.142;2023-02-17T01:01:28;100700.69;;;7.81;100.00
66560;BME280;53413;49.878;8.142;2023-02-17T01:03:54;100700.53;;;7.92;100.00
66560;BME280;53413;49.878;8.142;2023-02-17T01:06:25;100695.22;;;7.99;100.00
66560;BME280;53413;49.878;8.142;2023-02-17T01:08:51;100696.81;;;8.07;100.00
66560;BME280;53413;49.878;8.142;2023-02-17T01:11:21;100694.97;;;8.12;100.00
66560;BME280;53413;49.878;8.142;2023-02-17T01:13:47;100694.91;;;8.16;100.00
66560;BME280;53413;49.878;8.142;2023-02-17T01:16:22;100690.47;;;8.22;100.00
66560;BME280;53413;49.878;8.142;2023-02-17T01:18:48;100687.81;;;8.25;100.00
66560;BME280;53413;49.878;8.142;2023-02-17T01:21:18;100693.78;;;8.30;100.00
66560;BME280;53413;49.878;8.142;2023-02-17T01:23:44;100687.66;;;8.32;100.00
66560;BME280;53413;49.878;8.142;2023-02-17T01:26:14;100678.88;;;8.37;100.00
66560;BME280;53413;49.878;8.142;2023-02-17T01:28:40;100682.31;;;8.40;100.00
66560;BME280;53413;49.878;8.142;2023-02-17T01:31:09;100692.63;;;8.46;100.00
66560;BME280;53413;49.878;8.142;2023-02-17T01:33:36;100687.41;;;8.48;100.00
66560;BME280;53413;49.878;8.142;2023-02-17T01:36:03;100680.44;;;8.49;100.00
66560;BME280;53413;49.878;8.142;2023-02-17T01:38:28;100677.78;;;8.50;100.00
66560;BME280;53413;49.878;8.142;2023-02-17T01:40:54;100675.06;;;8.56;100.00
66560;BME280;53413;49.878;8.142;2023-02-17T01:43:20;100666.28;;;8.60;100.00
66560;BME280;53413;49.878;8.142;2023-02-17T01:45:55;100660.97;;;8.65;100.00
66560;BME280;53413;49.878;8.142;2023-02-17T01:48:45;100662.66;;;8.68;100.00
66560;BME280;53413;49.878;8.142;2023-02-17T01:53:50;100659.03;;;8.75;100.00
66560;BME280;53413;49.878;8.142;2023-02-17T01:56:19;100665.91;;;8.79;100.00
66560;BME280;53413;49.878;8.142;2023-02-17T01:58:49;100655.41;;;8.82;100.00
66560;BME280;53413;49.878;8.142;2023-02-17T02:01:17;100644.91;;;8.84;100.00
66560;BME280;53413;49.878;8.142;2023-02-17T02:03:43;100636.22;;;8.83;100.00
66560;BME280;53413;49.878;8.142;2023-02-17T02:06:18;100631.84;;;8.84;100.00
66560;BME280;53413;49.878;8.142;2023-02-17T02:08:50;100630.13;;;8.83;100.00
66560;BME280;53413;49.878;8.142;2023-02-17T02:11:17;100629.28;;;8.81;100.00
66560;BME280;53413;49.878;8.142;2023-02-17T02:13:42;100624.94;;;8.80;100.00
66560;BME280;53413;49.878;8.142;2023-02-17T02:16:20;100620.56;;;8.82;100.00
66560;BME280;53413;49.878;8.142;2023-02-17T02:24:19;100611.78;;;8.84;100.00
66560;BME280;53413;49.878;8.142;2023-02-17T02:29:55;100608.28;;;8.85;100.00
66560;BME280;53413;49.878;8.142;2023-02-17T02:38:31;100592.47;;;8.91;100.00
66560;BME280;53413;49.878;8.142;2023-02-17T02:41:08;100594.16;;;8.96;100.00
66560;BME280;53413;49.878;8.142;2023-02-17T02:43:36;100592.41;;;8.95;100.00
66560;BME280;53413;49.878;8.142;2023-02-17T02:46:02;100586.25;;;8.97;100.00
66560;BME280;53413;49.878;8.142;2023-02-17T02:48:27;100585.31;;;9.00;100.00
66560;BME280;53413;49.878;8.142;2023-02-17T02:51:04;100580.03;;;9.03;100.00
66560;BME280;53413;49.878;8.142;2023-02-17T02:53:48;100589.59;;;9.04;100.00
66560;BME280;53413;49.878;8.142;2023-02-17T02:59:11;100579.13;;;9.04;100.00
66560;BME280;53413;49.878;8.142;2023-02-17T03:01:53;100578.19;;;9.08;100.00
66560;BME280;53413;49.878;8.142;2023-02-17T03:04:30;100577.19;;;9.12;100.00
66560;BME280;53413;49.878;8.142;2023-02-17T03:07:15;100574.59;;;9.12;100.00
66560;BME280;53413;49.878;8.142;2023-02-17T03:09:51;100588.66;;;9.08;100.00
66560;BME280;53413;49.878;8.142;2023-02-17T03:12:17;100590.44;;;9.06;100.00
66560;BME280;53413;49.878;8.142;2023-02-17T03:14:43;100579.13;;;9.04;100.00
66560;BME280;53413;49.878;8.142;2023-02-17T03:17:09;100586.09;;;9.03;100.00
66560;BME280;53413;49.878;8.142;2023-02-17T03:19:34;100588.66;;;9.08;100.00
66560;BME280;53413;49.878;8.142;2023-02-17T03:22:11;100591.22;;;9.09;100.00
66560;BME280;53413;49.878;8.142;2023-02-17T03:24:41;100593.75;;;9.13;100.00
66560;BME280;53413;49.878;8.142;2023-02-17T03:27:06;100585.97;;;9.09;100.00
66560;BME280;53413;49.878;8.142;2023-02-17T03:29:32;100597.22;;;9.13;100.00
66560;BME280;53413;49.878;8.142;2023-02-17T03:31:57;100594.53;;;9.16;100.00
66560;BME280;53413;49.878;8.142;2023-02-17T03:34:23;100588.44;;;9.17;100.00
66560;BME280;53413;49.878;8.142;2023-02-17T03:36:48;100586.69;;;9.16;100.00
66560;BME280;53413;49.878;8.142;2023-02-17T03:39:13;100585.75;;;9.19;100.00
66560;BME280;53413;49.878;8.142;2023-02-17T03:41:39;100586.63;;;9.19;100.00
66560;BME280;53413;49.878;8.142;2023-02-17T03:44:04;100581.41;;;9.19;100.00
66560;BME280;53413;49.878;8.142;2023-02-17T03:46:29;100581.41;;;9.19;100.00
66560;BME280;53413;49.878;8.142;2023-02-17T03:48:55;100575.25;;;9.20;100.00
66560;BME280;53413;49.878;8.142;2023-02-17T03:51:21;100576.97;;;9.21;100.00
66560;BME280;53413;49.878;8.142;2023-02-17T03:53:48;100575.19;;;9.23;100.00
66560;BME280;53413;49.878;8.142;2023-02-17T03:56:14;100569.06;;;9.24;100.00
66560;BME280;53413;49.878;8.142;2023-02-17T03:58:40;100569.19;;;9.20;100.00
66560;BME280;53413;49.878;8.142;2023-02-17T04:01:07;100568.22;;;9.24;100.00
66560;BME280;53413;49.878;8.142;2023-02-17T04:03:33;100567.34;;;9.25;100.00
66560;BME280;53413;49.878;8.142;2023-02-17T04:05:59;100570.78;;;9.26;100.00
66560;BME280;53413;49.878;8.142;2023-02-17T04:08:24;100575.19;;;9.25;100.00
66560;BME280;53413;49.878;8.142;2023-02-17T04:10:54;100569.13;;;9.23;100.00
66560;BME280;53413;49.878;8.142;2023-02-17T04:13:20;100580.41;;;9.25;100.00
66560;BME280;53413;49.878;8.142;2023-02-17T04:15:45;100574.28;;;9.24;100.00
66560;BME280;53413;49.878;8.142;2023-02-17T04:18:11;100570.72;;;9.29;100.00
66560;BME280;53413;49.878;8.142;2023-02-17T04:20:36;100570.66;;;9.32;100.00
66560;BME280;53413;49.878;8.142;2023-02-17T04:23:01;100574.94;;;9.34;100.00
66560;BME280;53413;49.878;8.142;2023-02-17T04:25:27;100573.19;;;9.35;100.00
66560;BME280;53413;49.878;8.142;2023-02-17T04:27:52;100575.72;;;9.38;100.00
66560;BME280;53413;49.878;8.142;2023-02-17T04:30:17;100570.50;;;9.38;100.00
66560;BME280;53413;49.878;8.142;2023-02-17T04:32:43;100569.59;;;9.39;100.00
66560;BME280;53413;49.878;8.142;2023-02-17T04:35:08;100567.84;;;9.39;100.00
66560;BME280;53413;49.878;8.142;2023-02-17T04:37:33;100572.22;;;9.39;100.00
66560;BME280;53413;49.878;8.142;2023-02-17T04:39:59;100573.88;;;9.43;100.00
66560;BME280;53413;49.878;8.142;2023-02-17T04:42:24;100575.56;;;9.44;100.00
66560;BME280;53413;49.878;8.142;2023-02-17T04:44:49;100581.63;;;9.46;100.00
66560;BME280;53413;49.878;8.142;2023-02-17T04:47:15;100580.78;;;9.46;100.00
66560;BME280;53413;49.878;8.142;2023-02-17T04:49:40;100586.91;;;9.45;100.00
66560;BME280;53413;49.878;8.142;2023-02-17T04:52:05;100586.84;;;9.46;100.00
66560;BME280;53413;49.878;8.142;2023-02-17T04:54:31;100585.06;;;9.50;100.00
66560;BME280;53413;49.878;8.142;2023-02-17T04:56:56;100579.72;;;9.53;100.00
66560;BME280;53413;49.878;8.142;2023-02-17T04:59:21;100574.47;;;9.53;100.00
66560;BME280;53413;49.878;8.142;2023-02-17T05:01:47;100574.47;;;9.54;100.00
66560;BME280;53413;49.878;8.142;2023-02-17T05:04:12;100575.34;;;9.53;100.00
66560;BME280;53413;49.878;8.142;2023-02-17T05:06:37;100579.66;;;9.56;100.00
66560;BME280;53413;49.878;8.142;2023-02-17T05:09:03;100576.97;;;9.58;100.00
66560;BME280;53413;49.878;8.142;2023-02-17T05:11:28;100570.84;;;9.59;100.00
66560;BME280;53413;49.878;8.142;2023-02-17T05:13:54;100575.19;;;9.60;100.00
66560;BME280;53413;49.878;8.142;2023-02-17T05:16:20;100576.06;;;9.60;100.00
66560;BME280;53413;49.878;8.142;2023-02-17T05:18:45;100569.97;;;9.60;100.00
66560;BME280;53413;49.878;8.142;2023-02-17T05:21:10;100568.22;;;9.60;100.00
66560;BME280;53413;49.878;8.142;2023-02-17T05:23:36;100570.78;;;9.62;100.00
66560;BME280;53413;49.878;8.142;2023-02-17T05:26:09;100571.69;;;9.61;100.00
66560;BME280;53413;49.878;8.142;2023-02-17T05:28:35;100576.91;;;9.61;100.00
66560;BME280;53413;49.878;8.142;2023-02-17T05:31:02;100585.53;;;9.64;100.00
66560;BME280;53413;49.878;8.142;2023-02-17T05:33:28;100579.41;;;9.67;100.00
66560;BME280;53413;49.878;8.142;2023-02-17T05:35:54;100582.00;;;9.67;100.00
66560;BME280;53413;49.878;8.142;2023-02-17T05:38:19;100579.41;;;9.67;100.00
66560;BME280;53413;49.878;8.142;2023-02-17T05:40:45;100588.03;;;9.69;100.00
66560;BME280;53413;49.878;8.142;2023-02-17T05:43:10;100571.44;;;9.70;100.00
66560;BME280;53413;49.878;8.142;2023-02-17T05:45:35;100580.19;;;9.69;100.00
66560;BME280;53413;49.878;8.142;2023-02-17T05:48:01;100581.97;;;9.68;100.00
66560;BME280;53413;49.878;8.142;2023-02-17T05:50:26;100582.00;;;9.67;100.00
66560;BME280;53413;49.878;8.142;2023-02-17T05:52:51;100585.59;;;9.63;100.00
66560;BME280;53413;49.878;8.142;2023-02-17T05:55:17;100577.78;;;9.61;100.00
66560;BME280;53413;49.878;8.142;2023-02-17T05:57:42;100576.06;;;9.60;100.00
66560;BME280;53413;49.878;8.142;2023-02-17T06:00:08;100561.28;;;9.58;100.00
66560;BME280;53413;49.878;8.142;2023-02-17T06:02:34;100570.13;;;9.53;100.00
66560;BME280;53413;49.878;8.142;2023-02-17T06:04:59;100566.75;;;9.48;100.00
66560;BME280;53413;49.878;8.142;2023-02-17T06:07:24;100577.22;;;9.48;100.00
66560;BME280;53413;49.878;8.142;2023-02-17T06:09:50;100581.50;;;9.51;100.00
66560;BME280;53413;49.878;8.142;2023-02-17T06:12:15;100584.94;;;9.53;100.00
66560;BME280;53413;49.878;8.142;2023-02-17T06:14:40;100580.59;;;9.53;100.00
66560;BME280;53413;49.878;8.142;2023-02-17T06:17:06;100571.88;;;9.53;100.00
66560;BME280;53413;49.878;8.142;2023-02-17T06:19:31;100570.06;;;9.55;100.00
66560;BME280;53413;49.878;8.142;2023-02-17T06:21:56;100572.69;;;9.55;100.00
66560;BME280;53413;49.878;8.142;2023-02-17T06:24:23;100571.75;;;9.58;100.00
66560;BME280;53413;49.878;8.142;2023-02-17T06:26:48;100589.22;;;9.57;100.00
66560;BME280;53413;49.878;8.142;2023-02-17T06:29:13;100583.94;;;9.59;100.00
66560;BME280;53413;49.878;8.142;2023-02-17T06:31:39;100579.59;;;9.59;100.00
66560;BME280;53413;49.878;8.142;2023-02-17T06:34:04;100578.69;;;9.60;100.00
66560;BME280;53413;49.878;8.142;2023-02-17T06:36:29;100577.78;;;9.61;100.00
66560;BME280;53413;49.878;8.142;2023-02-17T06:38:55;100587.31;;;9.64;100.00
66560;BME280;53413;49.878;8.142;2023-02-17T06:41:20;100582.03;;;9.65;100.00
66560;BME280;53413;49.878;8.142;2023-02-17T06:43:45;100573.25;;;9.68;100.00
66560;BME280;53413;49.878;8.142;2023-02-17T06:46:11;100584.50;;;9.72;100.00
66560;BME280;53413;49.878;8.142;2023-02-17T06:48:36;100581.00;;;9.73;100.00
66560;BME280;53413;49.878;8.142;2023-02-17T06:51:02;100587.97;;;9.72;100.00
66560;BME280;53413;49.878;8.142;2023-02-17T06:53:27;100589.75;;;9.72;100.00
66560;BME280;53413;49.878;8.142;2023-02-17T06:55:52;100590.44;;;9.78;100.00
66560;BME280;53413;49.878;8.142;2023-02-17T06:58:18;100607.75;;;9.84;100.00
66560;BME280;53413;49.878;8.142;2023-02-17T07:00:43;100598.94;;;9.86;100.00
66560;BME280;53413;49.878;8.142;2023-02-17T07:03:08;100606.72;;;9.90;100.00
66560;BME280;53413;49.878;8.142;2023-02-17T07:05:34;100608.47;;;9.89;100.00
66560;BME280;53413;49.878;8.142;2023-02-17T07:08:00;100612.78;;;9.92;100.00
66560;BME280;53413;49.878;8.142;2023-02-17T07:10:25;100608.44;;;9.91;100.00
66560;BME280;53413;49.878;8.142;2023-02-17T07:12:51;100609.16;;;9.96;100.00
66560;BME280;53413;49.878;8.142;2023-02-17T07:15:16;100608.28;;;9.97;100.00
66560;BME280;53413;49.878;8.142;2023-02-17T07:17:41;100597.75;;;9.98;100.00
66560;BME280;53413;49.878;8.142;2023-02-17T07:20:07;100588.03;;;10.04;100.00
66560;BME280;53413;49.878;8.142;2023-02-17T07:22:33;100588.84;;;10.06;100.00
66560;BME280;53413;49.878;8.142;2023-02-17T07:24:58;100586.19;;;10.07;100.00
66560;BME280;53413;49.878;8.142;2023-02-17T07:27:24;100584.31;;;10.12;100.00
66560;BME280;53413;49.878;8.142;2023-02-17T07:29:49;100583.22;;;10.20;100.00
66560;BME280;53413;49.878;8.142;2023-02-17T07:32:15;100580.53;;;10.23;100.00
66560;BME280;53413;49.878;8.142;2023-02-17T07:34:40;100576.84;;;10.30;100.00
66560;BME280;53413;49.878;8.142;2023-02-17T07:37:06;100586.28;;;10.36;100.00
66560;BME280;53413;49.878;8.142;2023-02-17T07:39:32;100572.09;;;10.44;100.00
66560;BME280;53413;49.878;8.142;2023-02-17T07:41:58;100570.09;;;10.53;100.00
66560;BME280;53413;49.878;8.142;2023-02-17T07:44:25;100575.09;;;10.62;100.00
66560;BME280;53413;49.878;8.142;2023-02-17T07:46:52;100582.00;;;10.65;100.00
66560;BME280;53413;49.878;8.142;2023-02-17T07:49:17;100591.53;;;10.67;100.00
66560;BME280;53413;49.878;8.142;2023-02-17T07:51:42;100602.03;;;10.67;100.00
66560;BME280;53413;49.878;8.142;2023-02-17T07:54:08;100605.53;;;10.66;100.00
66560;BME280;53413;49.878;8.142;2023-02-17T07:56:33;100607.31;;;10.66;100.00
66560;BME280;53413;49.878;8.142;2023-02-17T07:58:58;100599.50;;;10.64;100.00
66560;BME280;53413;49.878;8.142;2023-02-17T08:01:24;100602.13;;;10.64;100.00
66560;BME280;53413;49.878;8.142;2023-02-17T08:03:50;100599.53;;;10.62;100.00
66560;BME280;53413;49.878;8.142;2023-02-17T08:06:21;100596.78;;;10.67;100.00
66560;BME280;53413;49.878;8.142;2023-02-17T08:08:48;100595.06;;;10.66;100.00
66560;BME280;53413;49.878;8.142;2023-02-17T08:11:32;100601.19;;;10.67;100.00
66560;BME280;53413;49.878;8.142;2023-02-17T08:14:16;100588.91;;;10.67;100.00
66560;BME280;53413;49.878;8.142;2023-02-17T08:16:42;100590.50;;;10.73;100.00
66560;BME280;53413;49.878;8.142;2023-02-17T08:19:07;100590.31;;;10.79;100.00
66560;BME280;53413;49.878;8.142;2023-02-17T08:21:33;100595.22;;;10.90;100.00
66560;BME280;53413;49.878;8.142;2023-02-17T08:23:59;100592.53;;;10.93;100.00
66560;BME280;53413;49.878;8.142;2023-02-17T08:26:24;100599.56;;;10.91;100.00
66560;BME280;53413;49.878;8.142;2023-02-17T08:28:50;100591.75;;;10.89;100.00
66560;BME280;53413;49.878;8.142;2023-02-17T08:31:24;100595.22;;;10.90;100.00
66560;BME280;53413;49.878;8.142;2023-02-17T08:33:51;100610.78;;;10.96;100.00
66560;BME280;53413;49.878;8.142;2023-02-17T08:36:17;100608.94;;;11.00;100.00
66560;BME280;53413;49.878;8.142;2023-02-17T08:38:45;100605.34;;;11.02;100.00
66560;BME280;53413;49.878;8.142;2023-02-17T08:41:19;100601.00;;;11.01;100.00
66560;BME280;53413;49.878;8.142;2023-02-17T08:43:44;100600.91;;;11.04;100.00
66560;BME280;53413;49.878;8.142;2023-02-17T08:46:11;100605.13;;;11.10;100.00
66560;BME280;53413;49.878;8.142;2023-02-17T08:48:37;100605.13;;;11.10;100.00
66560;BME280;53413;49.878;8.142;2023-02-17T08:51:03;100614.00;;;11.06;100.00
66560;BME280;53413;49.878;8.142;2023-02-17T08:53:29;100629.69;;;11.07;100.00
66560;BME280;53413;49.878;8.142;2023-02-17T08:55:54;100628.41;;;11.21;100.00
66560;BME280;53413;49.878;8.142;2023-02-17T08:58:20;100618.53;;;11.29;100.00
66560;BME280;53413;49.878;8.142;2023-02-17T09:00:45;100619.34;;;11.31;100.00
66560;BME280;53413;49.878;8.142;2023-02-17T09:03:10;100617.47;;;11.35;100.00
66560;BME280;53413;49.878;8.142;2023-02-17T09:05:36;100618.19;;;11.40;100.00
66560;BME280;53413;49.878;8.142;2023-02-17T09:08:01;100611.16;;;11.40;100.00
66560;BME280;53413;49.878;8.142;2023-02-17T09:10:27;100589.47;;;11.35;100.00
66560;BME280;53413;49.878;8.142;2023-02-17T09:12:52;100590.47;;;11.31;100.00
66560;BME280;53413;49.878;8.142;2023-02-17T09:15:19;100606.22;;;11.31;100.00
66560;BME280;53413;49.878;8.142;2023-02-17T09:17:44;100598.94;;;11.39;100.00
66560;BME280;53413;49.878;8.142;2023-02-17T09:20:10;100596.66;;;11.57;100.00
66560;BME280;53413;49.878;8.142;2023-02-17T09:22:35;100607.56;;;11.72;100.00
66560;BME280;53413;49.878;8.142;2023-02-17T09:25:02;100609.38;;;11.69;100.00
66560;BME280;53413;49.878;8.142;2023-02-17T09:27:27;100623.50;;;11.65;100.00
66560;BME280;53413;49.878;8.142;2023-02-17T09:29:53;100614.97;;;11.59;100.00
66560;BME280;53413;49.878;8.142;2023-02-17T09:32:18;100621.94;;;11.60;100.00
66560;BME280;53413;49.878;8.142;2023-02-17T09:34:44;100635.13;;;11.58;100.00
66560;BME280;53413;49.878;8.142;2023-02-17T09:37:15;100632.19;;;11.67;100.00
66560;BME280;53413;49.878;8.142;2023-02-17T09:39:44;100638.28;;;11.68;100.00
66560;BME280;53413;49.878;8.142;2023-02-17T09:42:24;100631.22;;;11.70;100.00
66560;BME280;53413;49.878;8.142;2023-02-17T09:45:16;100628.44;;;11.75;100.00
66560;BME280;53413;49.878;8.142;2023-02-17T09:47:46;100624.75;;;11.80;100.00
66560;BME280;53413;49.878;8.142;2023-02-17T09:50:26;100632.13;;;11.96;100.00
66560;BME280;53413;49.878;8.142;2023-02-17T09:53:24;100631.00;;;12.03;100.00
66560;BME280;53413;49.878;8.142;2023-02-17T09:55:54;100643.78;;;12.14;100.00
66560;BME280;53413;49.878;8.142;2023-02-17T09:58:24;100626.78;;;12.24;100.00
66560;BME280;53413;49.878;8.142;2023-02-17T10:00:59;100626.72;;;12.51;100.00
66560;BME280;53413;49.878;8.142;2023-02-17T10:06:23;100631.59;;;13.76;100.00
66560;BME280;53413;49.878;8.142;2023-02-17T10:08:58;100628.34;;;14.31;100.00
66560;BME280;53413;49.878;8.142;2023-02-17T10:11:35;100637.78;;;14.56;100.00
66560;BME280;53413;49.878;8.142;2023-02-17T10:16:52;100625.03;;;14.87;100.00
66560;BME280;53413;49.878;8.142;2023-02-17T10:22:26;100624.81;;;14.52;100.00
66560;BME280;53413;49.878;8.142;2023-02-17T10:24:52;100617.94;;;14.28;100.00
66560;BME280;53413;49.878;8.142;2023-02-17T10:27:40;100624.88;;;14.10;100.00
66560;BME280;53413;49.878;8.142;2023-02-17T10:30:18;100626.38;;;13.95;100.00
66560;BME280;53413;49.878;8.142;2023-02-17T10:40:54;100622.72;;;13.77;100.00
66560;BME280;53413;49.878;8.142;2023-02-17T10:43:23;100627.28;;;13.74;100.00
66560;BME280;53413;49.878;8.142;2023-02-17T10:45:50;100635.91;;;13.77;100.00
66560;BME280;53413;49.878;8.142;2023-02-17T10:48:25;100618.06;;;13.84;100.00
66560;BME280;53413;49.878;8.142;2023-02-17T10:50:52;100629.59;;;13.81;100.00
66560;BME280;53413;49.878;8.142;2023-02-17T10:53:22;100640.22;;;13.80;100.00
66560;BME280;53413;49.878;8.142;2023-02-17T10:55:54;100632.44;;;13.77;100.00
66560;BME280;53413;49.878;8.142;2023-02-17T10:58:48;100631.53;;;13.55;100.00
66560;BME280;53413;49.878;8.142;2023-02-17T11:01:14;100639.22;;;13.38;100.00
66560;BME280;53413;49.878;8.142;2023-02-17T11:03:40;100647.50;;;13.29;100.00
66560;BME280;53413;49.878;8.142;2023-02-17T11:06:21;100650.75;;;13.12;100.00
66560;BME280;53413;49.878;8.142;2023-02-17T11:08:54;100641.00;;;13.15;100.00
66560;BME280;53413;49.878;8.142;2023-02-17T11:11:23;100637.94;;;13.26;100.00
66560;BME280;53413;49.878;8.142;2023-02-17T11:16:28;100643.22;;;13.70;100.00
66560;BME280;53413;49.878;8.142;2023-02-17T11:18:57;100637.66;;;13.99;100.00
66560;BME280;53413;49.878;8.142;2023-02-17T11:21:23;100632.38;;;14.20;100.00
66560;BME280;53413;49.878;8.142;2023-02-17T11:24:00;100628.22;;;14.14;100.00
66560;BME280;53413;49.878;8.142;2023-02-17T11:26:32;100615.53;;;14.24;100.00
66560;BME280;53413;49.878;8.142;2023-02-17T11:29:16;100625.09;;;14.45;100.00
66560;BME280;53413;49.878;8.142;2023-02-17T11:31:56;100607.81;;;14.59;100.00
66560;BME280;53413;49.878;8.142;2023-02-17T11:34:25;100596.47;;;14.57;100.00
66560;BME280;53413;49.878;8.142;2023-02-17T11:39:44;100574.53;;;14.75;100.00
66560;BME280;53413;49.878;8.142;2023-02-17T11:44:39;100576.69;;;14.86;100.00
66560;BME280;53413;49.878;8.142;2023-02-17T11:47:12;100569.53;;;15.07;100.00
66560;BME280;53413;49.878;8.142;2023-02-17T11:52:42;100566.91;;;15.07;100.00
66560;BME280;53413;49.878;8.142;2023-02-17T11:58:27;100595.22;;;15.41;100.00
66560;BME280;53413;49.878;8.142;2023-02-17T12:01:10;100590.22;;;15.34;100.00
66560;BME280;53413;49.878;8.142;2023-02-17T12:09:17;100616.88;;;14.91;100.00
66560;BME280;53413;49.878;8.142;2023-02-17T12:11:58;100617.47;;;14.98;100.00
66560;BME280;53413;49.878;8.142;2023-02-17T12:28:00;100611.16;;;14.02;100.00
66560;BME280;53413;49.878;8.142;2023-02-17T12:31:00;100608.44;;;14.24;100.00
66560;BME280;53413;49.878;8.142;2023-02-17T12:33:37;100584.41;;;14.51;100.00
66560;BME280;53413;49.878;8.142;2023-02-17T12:36:12;100583.72;;;14.67;100.00
66560;BME280;53413;49.878;8.142;2023-02-17T12:38:43;100583.53;;;14.71;100.00
66560;BME280;53413;49.878;8.142;2023-02-17T12:43:58;100582.97;;;14.84;100.00
66560;BME280;53413;49.878;8.142;2023-02-17T12:46:41;100577.81;;;15.00;100.00
66560;BME280;53413;49.878;8.142;2023-02-17T12:49:26;100582.19;;;15.18;100.00
66560;BME280;53413;49.878;8.142;2023-02-17T12:51:59;100570.94;;;15.15;100.00
66560;BME280;53413;49.878;8.142;2023-02-17T12:59:46;100556.72;;;14.81;100.00
66560;BME280;53413;49.878;8.142;2023-02-17T13:02:20;100552.84;;;14.69;100.00
66560;BME280;53413;49.878;8.142;2023-02-17T13:04:54;100549.78;;;14.59;100.00
66560;BME280;53413;49.878;8.142;2023-02-17T13:10:34;100547.06;;;14.41;100.00
66560;BME280;53413;49.878;8.142;2023-02-17T13:16:06;100570.72;;;14.24;100.00
66560;BME280;53413;49.878;8.142;2023-02-17T13:18:36;100566.75;;;14.13;100.00
66560;BME280;53413;49.878;8.142;2023-02-17T13:24:13;100578.56;;;13.84;100.00
66560;BME280;53413;49.878;8.142;2023-02-17T13:26:42;100577.03;;;13.78;100.00
66560;BME280;53413;49.878;8.142;2023-02-17T13:31:52;100563.53;;;13.86;100.00
66560;BME280;53413;49.878;8.142;2023-02-17T13:34:37;100553.38;;;13.97;100.00
66560;BME280;53413;49.878;8.142;2023-02-17T13:39:58;100540.13;;;14.20;100.00
66560;BME280;53413;49.878;8.142;2023-02-17T13:42:32;100536.00;;;14.33;100.00
66560;BME280;53413;49.878;8.142;2023-02-17T13:44:58;100544.88;;;14.51;100.00
66560;BME280;53413;49.878;8.142;2023-02-17T13:47:32;100547.56;;;14.88;100.00
66560;BME280;53413;49.878;8.142;2023-02-17T13:49:58;100549.56;;;15.02;100.00
66560;BME280;53413;49.878;8.142;2023-02-17T13:52:29;100554.69;;;14.86;100.00
66560;BME280;53413;49.878;8.142;2023-02-17T13:54:58;100548.38;;;14.71;100.00
66560;BME280;53413;49.878;8.142;2023-02-17T13:57:29;100544.50;;;14.59;100.00
66560;BME280;53413;49.878;8.142;2023-02-17T14:00:18;100540.22;;;14.56;100.00
66560;BME280;53413;49.878;8.142;2023-02-17T14:05:34;100528.81;;;14.56;100.00
66560;BME280;53413;49.878;8.142;2023-02-17T14:08:06;100520.81;;;14.57;100.00
66560;BME280;53413;49.878;8.142;2023-02-17T14:10:36;100523.47;;;14.57;100.00
66560;BME280;53413;49.878;8.142;2023-02-17T14:13:02;100531.31;;;14.59;100.00
66560;BME280;53413;49.878;8.142;2023-02-17T14:15:28;100542.66;;;14.61;100.00
66560;BME280;53413;49.878;8.142;2023-02-17T14:17:54;100534.34;;;14.70;100.00
66560;BME280;53413;49.878;8.142;2023-02-17T14:20:31;100538.47;;;14.76;100.00
66560;BME280;53413;49.878;8.142;2023-02-17T14:23:08;100534.91;;;14.77;100.00
66560;BME280;53413;49.878;8.142;2023-02-17T14:25:38;100514.50;;;14.81;100.00
66560;BME280;53413;49.878;8.142;2023-02-17T14:28:25;100511.97;;;14.97;100.00